NinjaTrader algorithmic trading courses, automated trade systems, high frequency trading

Channel BreakOut Trade System Constructor

The Ultimate Approach to Trade Channel Breakouts


Tube Trend Strategy for NinjaTrader 8

View Showcase Below









Strategy Main Features


  • Channel base built from EMA, HMA, TMA, SMA, VWMA, TEMA, WMA, VWAP

  • Channel offset by standard deviation or ATR

  • Flexible ATR based Stop Loss and Take Profit Values

  • Strong and Extendable filter block

  • Split and Breakeven Possibilities

  • Trade Long/Short or Both Directions

  • Channel Input Selector RSI, Close Prices

Strategy Description

Simplicity is the way to go quite often and this system is not an exception to this amazing coincidence. This system is built to look for trend moves and stay safe and sideways during periods of less dynamic market activity. System offers a few approaches to how the channel or the tube is built either using a variety of moving averages such as EMA, HMA, TMA, SMA, VWMA, TEMA, WMA and offsetting the channel sides by the use of a standard deviation or an ATR. The entry occurs at channel break out allowing users to set two profit targets and a stop using multiples of current ATR values. Once your first profit target is reached the strategy automatically moves the stop loss to break even. The position size for each split is a variable and it is up the user to manage this risk. The strategy also allows to either close or reverse the existing position at the occurrence of an opposite signal. This fact is also allowed to be ignored. Another exiting feature that is present is the middle channel exit. Finally the strategy is supplied with an extendable filter block. Out of the box users are presented with an MACD and RSI filters. It is possible to extend this block with infinite number of variations should you wish to acquire the source code license or become a member to NinjaCoding development services. Overall the strategy can be optimized providing numerous parameter combinations. Feel free to explore the provided validations and settings for more information.



Related Blog Posts













Validations

Test Results Demonstrating Potential System Stability



What is In-Sample & Out-of-Sample

In Sample part of the test is the period where we optimize the strategy. Optimization is a process that is believed to find the best strategy parameters for that particular period.

However these parameters can fail miserably on the Out-of-Sample part of the test which is a mimic of the live performance.

In order to test the system’s potential robustness we try and see good Out - of Sample results as well which can be a good sign of that the parameters which we found for the In-Sample part of the test can actually be acceptable for the live trading.

Each validation is done with a 1 contract test and is provided with at least 3 validation tests to demonstrate potential system stability.

We provide 3 tempalte files with the system that you are free to use for your own trading. If you set up the exact same test environment and run these settings you will get very similar results to those demonstrated on our tests.

Please see video for more information!









TestDescription
Symbol: MNQ
ChartType:
TimeFrame: 60
OptimizationCoefficient: Profit Factor
MoreTests
MNQ 13.01.2020 - 12.02.2021
GC 27.01.2020 - 16.02.2021
SI 21.01.2020 - 16.02.2021
MIJY 13.01.2020 - 09.02.2021
In-Sample Out-of-Sample
Net Profit 12016.50 4594.00
Average Trade 98.50 76.57
Number of trades 122.00 60.00
Trades per Month 15.90 11.40
Trades per Year 193.45 138.70
First Trade Open Date 13.01.2020 10.09.2020
Last Trade Open Date 27.08.2020 12.02.2021
Profit Factor 2.67 1.94
Sharp 1.28 1.10
Max Draw Down -1981.50 -1024.00
Draw Down Below 0 Line -1193.50 -1193.50
Average Draw Down -451.65 -576.43
Average Draw Down Days 9.42 15.04
Max Draw Down Days 33.25 21.46
Win Rate 64.75 61.67
Average Win 243.34 256.68
Max Cons Win 9.00 7.00
Max Win 585.00 679.00
Loss Rate 21.31 25.00
Average Loss -277.21 -326.87
Max Cons Loss 2.00 3.00
Max Loss -1492.00 -654.00
EntryDate ExitDate Qty Profit CumProfit
13.01.2020 13.01.2020 1 64.00 64.00
13.01.2020 13.01.2020 1 128.00 192.00
14.01.2020 14.01.2020 2 -183.00 9.00
15.01.2020 15.01.2020 2 -127.00 -118.00
16.01.2020 16.01.2020 1 67.00 -51.00
16.01.2020 17.01.2020 1 133.50 82.50
20.01.2020 20.01.2020 2 -137.00 -54.50
21.01.2020 21.01.2020 1 63.00 8.50
21.01.2020 22.01.2020 1 -15.50 -7.00
23.01.2020 23.01.2020 1 82.00 75.00
23.01.2020 24.01.2020 1 0.00 75.00
29.01.2020 29.01.2020 2 -268.00 -193.00
29.01.2020 30.01.2020 2 -270.00 -463.00
30.01.2020 30.01.2020 1 163.50 -299.50
30.01.2020 31.01.2020 1 -102.50 -402.00
04.02.2020 04.02.2020 1 137.00 -265.00
04.02.2020 04.02.2020 1 273.50 8.50
06.02.2020 07.02.2020 2 -138.00 -129.50
07.02.2020 07.02.2020 2 -165.00 -294.50
10.02.2020 10.02.2020 1 126.00 -168.50
10.02.2020 10.02.2020 1 252.00 83.50
12.02.2020 12.02.2020 1 91.50 175.00
12.02.2020 13.02.2020 1 0.00 175.00
13.02.2020 16.02.2020 1 111.50 286.50
13.02.2020 17.02.2020 1 0.00 286.50
19.02.2020 19.02.2020 1 87.50 374.00
19.02.2020 19.02.2020 1 174.50 548.50
20.02.2020 20.02.2020 2 -242.00 306.50
02.03.2020 03.03.2020 1 481.50 788.00
02.03.2020 03.03.2020 1 0.00 788.00
04.03.2020 05.03.2020 2 -468.00 320.00
19.03.2020 19.03.2020 2 -551.00 -231.00
20.03.2020 20.03.2020 1 529.50 298.50
20.03.2020 20.03.2020 1 0.00 298.50
20.03.2020 20.03.2020 2 -1492.00 -1193.50
24.03.2020 25.03.2020 1 474.50 -719.00
24.03.2020 25.03.2020 1 0.00 -719.00
25.03.2020 25.03.2020 1 476.50 -242.50
25.03.2020 25.03.2020 1 -55.50 -298.00
26.03.2020 26.03.2020 1 430.50 132.50
26.03.2020 27.03.2020 1 0.00 132.50
30.03.2020 31.03.2020 1 352.50 485.00
30.03.2020 31.03.2020 1 0.00 485.00
05.04.2020 05.04.2020 1 292.50 777.50
05.04.2020 06.04.2020 1 585.00 1362.50
08.04.2020 09.04.2020 1 292.00 1654.50
08.04.2020 12.04.2020 1 -144.50 1510.00
13.04.2020 13.04.2020 1 236.00 1746.00
13.04.2020 14.04.2020 1 472.00 2218.00
15.04.2020 16.04.2020 1 216.50 2434.50
15.04.2020 16.04.2020 1 457.00 2891.50
23.04.2020 23.04.2020 2 -585.00 2306.50
24.04.2020 24.04.2020 1 205.50 2512.00
24.04.2020 27.04.2020 1 411.00 2923.00
27.04.2020 28.04.2020 1 179.00 3102.00
27.04.2020 28.04.2020 1 0.00 3102.00
29.04.2020 29.04.2020 1 190.00 3292.00
29.04.2020 29.04.2020 1 380.50 3672.50
05.05.2020 05.05.2020 1 157.00 3829.50
05.05.2020 05.05.2020 1 0.00 3829.50
06.05.2020 06.05.2020 1 175.50 4005.00
06.05.2020 07.05.2020 1 351.50 4356.50
08.05.2020 10.05.2020 1 141.50 4498.00
08.05.2020 11.05.2020 1 -1.00 4497.00
11.05.2020 12.05.2020 1 160.50 4657.50
11.05.2020 12.05.2020 1 -56.50 4601.00
15.05.2020 18.05.2020 1 238.00 4839.00
15.05.2020 19.05.2020 1 475.50 5314.50
20.05.2020 20.05.2020 1 144.50 5459.00
20.05.2020 21.05.2020 1 0.00 5459.00
25.05.2020 25.05.2020 1 122.50 5581.50
25.05.2020 26.05.2020 1 245.50 5827.00
28.05.2020 28.05.2020 2 -513.00 5314.00
29.05.2020 02.06.2020 1 229.00 5543.00
29.05.2020 03.06.2020 1 458.00 6001.00
04.06.2020 04.06.2020 1 107.00 6108.00
04.06.2020 04.06.2020 1 -84.00 6024.00
05.06.2020 05.06.2020 2 -177.00 5847.00
05.06.2020 05.06.2020 1 162.50 6009.50
05.06.2020 08.06.2020 1 0.00 6009.50
08.06.2020 08.06.2020 1 142.50 6152.00
08.06.2020 09.06.2020 1 285.50 6437.50
15.06.2020 16.06.2020 1 273.50 6711.00
15.06.2020 16.06.2020 1 -84.50 6626.50
16.06.2020 18.06.2020 2 95.00 6721.50
18.06.2020 19.06.2020 1 181.50 6903.00
18.06.2020 19.06.2020 1 0.00 6903.00
22.06.2020 22.06.2020 1 163.00 7066.00
22.06.2020 22.06.2020 1 0.00 7066.00
30.06.2020 30.06.2020 1 166.50 7232.50
30.06.2020 01.07.2020 1 333.00 7565.50
05.07.2020 05.07.2020 1 114.00 7679.50
05.07.2020 06.07.2020 1 227.50 7907.00
07.07.2020 07.07.2020 1 131.00 8038.00
07.07.2020 07.07.2020 1 -18.50 8019.50
08.07.2020 08.07.2020 2 -458.00 7561.50
08.07.2020 09.07.2020 1 177.00 7738.50
08.07.2020 09.07.2020 1 0.00 7738.50
09.07.2020 10.07.2020 1 188.00 7926.50
09.07.2020 12.07.2020 1 376.00 8302.50
20.07.2020 20.07.2020 1 140.50 8443.00
20.07.2020 20.07.2020 1 280.50 8723.50
29.07.2020 30.07.2020 2 -513.00 8210.50
30.07.2020 30.07.2020 1 221.00 8431.50
30.07.2020 30.07.2020 1 442.00 8873.50
31.07.2020 03.08.2020 1 266.00 9139.50
31.07.2020 06.08.2020 1 332.50 9472.00
06.08.2020 06.08.2020 1 123.00 9595.00
06.08.2020 06.08.2020 1 246.50 9841.50
12.08.2020 13.08.2020 1 193.00 10034.50
12.08.2020 13.08.2020 1 0.00 10034.50
13.08.2020 17.08.2020 1 187.00 10221.50
13.08.2020 18.08.2020 1 374.00 10595.50
19.08.2020 19.08.2020 2 -358.00 10237.50
20.08.2020 20.08.2020 1 162.50 10400.00
20.08.2020 21.08.2020 1 0.00 10400.00
21.08.2020 21.08.2020 1 138.50 10538.50
21.08.2020 24.08.2020 1 277.50 10816.00
24.08.2020 25.08.2020 1 172.50 10988.50
24.08.2020 26.08.2020 1 345.00 11333.50
27.08.2020 30.08.2020 1 227.50 11561.00
27.08.2020 31.08.2020 1 455.50 12016.50
10.09.2020 10.09.2020 2 -654.00 11362.50
15.09.2020 15.09.2020 1 190.00 11552.50
15.09.2020 15.09.2020 1 0.00 11552.50
22.09.2020 23.09.2020 2 -560.00 10992.50
25.09.2020 28.09.2020 1 283.00 11275.50
25.09.2020 28.09.2020 1 566.00 11841.50
30.09.2020 01.10.2020 1 240.00 12081.50
30.09.2020 02.10.2020 1 0.00 12081.50
07.10.2020 08.10.2020 1 192.00 12273.50
07.10.2020 09.10.2020 1 383.50 12657.00
13.10.2020 14.10.2020 2 -544.00 12113.00
03.11.2020 03.11.2020 1 237.50 12350.50
03.11.2020 03.11.2020 1 475.50 12826.00
06.11.2020 08.11.2020 1 311.50 13137.50
06.11.2020 09.11.2020 1 622.50 13760.00
12.11.2020 16.11.2020 2 -179.00 13581.00
16.11.2020 17.11.2020 2 -255.00 13326.00
20.11.2020 20.11.2020 2 -394.00 12932.00
24.11.2020 24.11.2020 1 147.00 13079.00
24.11.2020 24.11.2020 1 294.00 13373.00
27.11.2020 27.11.2020 1 84.00 13457.00
27.11.2020 29.11.2020 1 168.50 13625.50
30.11.2020 30.11.2020 2 -391.00 13234.50
30.11.2020 30.11.2020 1 193.00 13427.50
30.11.2020 01.12.2020 1 386.00 13813.50
02.12.2020 03.12.2020 1 158.50 13972.00
02.12.2020 03.12.2020 1 0.00 13972.00
03.12.2020 07.12.2020 1 136.50 14108.50
03.12.2020 08.12.2020 1 0.00 14108.50
08.12.2020 08.12.2020 1 124.00 14232.50
08.12.2020 09.12.2020 1 0.00 14232.50
14.12.2020 14.12.2020 1 125.50 14358.00
14.12.2020 15.12.2020 1 251.00 14609.00
18.12.2020 18.12.2020 2 -253.00 14356.00
20.12.2020 21.12.2020 2 -420.00 13936.00
27.12.2020 28.12.2020 1 123.50 14059.50
27.12.2020 28.12.2020 1 247.00 14306.50
29.12.2020 30.12.2020 2 -70.00 14236.50
03.01.2021 03.01.2021 2 -215.00 14021.50
04.01.2021 04.01.2021 1 99.00 14120.50
04.01.2021 04.01.2021 1 -2.00 14118.50
07.01.2021 07.01.2021 1 228.00 14346.50
07.01.2021 08.01.2021 1 456.50 14803.00
13.01.2021 14.01.2021 2 -451.00 14352.00
19.01.2021 19.01.2021 1 141.00 14493.00
19.01.2021 20.01.2021 1 281.50 14774.50
24.01.2021 25.01.2021 1 149.00 14923.50
24.01.2021 25.01.2021 1 0.00 14923.50
25.01.2021 26.01.2021 2 -343.00 14580.50
26.01.2021 26.01.2021 1 192.50 14773.00
26.01.2021 27.01.2021 1 0.00 14773.00
01.02.2021 01.02.2021 1 339.50 15112.50
01.02.2021 02.02.2021 1 679.00 15791.50
04.02.2021 05.02.2021 1 159.00 15950.50
04.02.2021 09.02.2021 1 318.50 16269.00
09.02.2021 10.02.2021 1 111.50 16380.50
09.02.2021 10.02.2021 1 0.00 16380.50
11.02.2021 12.02.2021 2 -172.00 16208.50
12.02.2021 12.02.2021 1 134.00 16342.50
12.02.2021 15.02.2021 1 268.00 16610.50



Subscriptions

Lease, Free Hold and Source Code Options Available
245 USD

Supported 24-7

Tested & Validated